createdAt,value
2022-11-17T00:00:54.377Z,96.61
2022-11-17T00:01:54.393Z,96.71
2022-11-17T00:02:54.398Z,96.61
2022-11-17T00:03:54.337Z,96.30
2022-11-17T00:04:54.352Z,96.71
2022-11-17T00:05:54.365Z,96.56
2022-11-17T00:06:54.353Z,96.61
2022-11-17T00:07:54.299Z,96.36
2022-11-17T00:08:54.289Z,96.36
2022-11-17T00:09:54.298Z,96.25
2022-11-17T00:10:54.288Z,96.62
2022-11-17T00:11:54.255Z,96.62
2022-11-17T00:12:54.246Z,96.11
2022-11-17T00:13:54.233Z,95.80
2022-11-17T00:14:54.313Z,95.39
2022-11-17T00:15:54.255Z,95.18
2022-11-17T00:16:54.227Z,94.87
2022-11-17T00:17:54.257Z,94.81
2022-11-17T00:18:54.198Z,95.28
2022-11-17T00:19:54.233Z,95.28
2022-11-17T00:20:54.265Z,94.56
2022-11-17T00:21:54.163Z,94.56
2022-11-17T00:22:54.172Z,95.18
2022-11-17T00:23:54.145Z,94.83
2022-11-17T00:24:54.128Z,95.34
2022-11-17T00:25:54.117Z,95.28
2022-11-17T00:26:54.128Z,94.73
2022-11-17T00:27:54.111Z,94.21
2022-11-17T00:28:54.113Z,93.96
2022-11-17T00:29:54.076Z,93.96
2022-11-17T00:30:54.089Z,93.76
2022-11-17T00:31:54.061Z,93.65
2022-11-17T00:32:54.065Z,94.01
2022-11-17T00:33:54.040Z,93.65
2022-11-17T00:34:54.031Z,94.01
2022-11-17T00:35:54.059Z,94.21
2022-11-17T00:36:54.005Z,94.93
2022-11-17T00:37:54.009Z,95.59
2022-11-17T00:38:53.993Z,94.67
2022-11-17T00:39:59.251Z,95.39
2022-11-17T00:40:56.000Z,95.28
2022-11-17T00:41:53.968Z,95.18
2022-11-17T00:42:53.949Z,95.49
2022-11-17T00:43:53.943Z,95.18
2022-11-17T00:44:53.925Z,95.49
2022-11-17T00:45:53.930Z,95.49
2022-11-17T00:46:53.937Z,95.39
2022-11-17T00:47:53.903Z,95.84
2022-11-17T00:48:53.922Z,95.49
2022-11-17T00:49:53.896Z,95.80
2022-11-17T00:50:53.882Z,95.70
2022-11-17T00:51:53.887Z,95.33
2022-11-17T00:52:53.922Z,95.90
2022-11-17T00:53:53.846Z,95.49
2022-11-17T00:54:53.857Z,95.70
2022-11-17T00:55:53.889Z,96.00
2022-11-17T00:56:53.832Z,95.59
2022-11-17T00:57:53.807Z,95.39
2022-11-17T00:58:53.811Z,95.34
2022-11-17T00:59:53.786Z,95.03
2022-11-17T01:00:53.791Z,95.55
2022-11-17T01:01:53.843Z,94.83
2022-11-17T01:02:53.752Z,95.09
2022-11-17T01:03:54.748Z,94.07
2022-11-17T01:04:53.781Z,94.37
2022-11-17T01:05:53.725Z,94.58
2022-11-17T01:06:54.738Z,94.17
2022-11-17T01:07:53.746Z,94.58
2022-11-17T01:08:53.764Z,93.96
2022-11-17T01:09:53.731Z,94.07
2022-11-17T01:10:53.692Z,94.37
2022-11-17T01:11:53.712Z,94.21
2022-11-17T01:12:53.657Z,94.01
2022-11-17T01:13:53.629Z,94.11
2022-11-17T01:14:53.684Z,94.62
2022-11-17T01:15:53.645Z,94.31
2022-11-17T01:16:53.649Z,94.01
2022-11-17T01:17:53.612Z,93.76
2022-11-17T01:18:53.586Z,94.31
2022-11-17T01:19:53.590Z,93.90
2022-11-17T01:20:53.575Z,93.65
2022-11-17T01:21:53.587Z,93.70
2022-11-17T01:22:53.552Z,94.01
2022-11-17T01:23:53.542Z,94.42
2022-11-17T01:24:53.531Z,94.46
2022-11-17T01:25:53.535Z,94.93
2022-11-17T01:26:53.563Z,95.24
2022-11-17T01:27:53.513Z,94.87
2022-11-17T01:28:53.496Z,94.42
2022-11-17T01:29:53.470Z,94.62
2022-11-17T01:30:53.496Z,94.11
2022-11-17T01:31:53.468Z,94.87
2022-11-17T01:32:53.460Z,95.70
2022-11-17T01:33:53.433Z,94.98
2022-11-17T01:34:53.415Z,95.49
2022-11-17T01:35:53.486Z,95.18
2022-11-17T01:36:53.426Z,94.67
2022-11-17T01:37:53.394Z,95.39
2022-11-17T01:38:53.391Z,95.49
2022-11-17T01:39:53.368Z,94.77
2022-11-17T01:40:53.442Z,95.39
2022-11-17T01:41:53.400Z,95.28
2022-11-17T01:42:53.381Z,95.39
2022-11-17T01:43:53.346Z,95.18
2022-11-17T01:44:53.360Z,95.49
2022-11-17T01:45:53.329Z,95.49
2022-11-17T01:46:58.224Z,95.18
2022-11-17T01:47:55.324Z,95.18
2022-11-17T01:48:53.296Z,95.28
2022-11-17T01:49:53.262Z,95.28
2022-11-17T01:50:53.284Z,95.49
2022-11-17T01:51:53.260Z,95.90
2022-11-17T01:52:53.241Z,96.42
2022-11-17T01:53:53.267Z,96.21
2022-11-17T01:54:53.244Z,96.21
2022-11-17T01:55:53.242Z,95.49
2022-11-17T01:56:53.293Z,95.70
2022-11-17T01:57:53.201Z,96.21
2022-11-17T01:58:53.223Z,95.96
2022-11-17T01:59:53.192Z,95.59
2022-11-17T02:00:53.175Z,95.28
2022-11-17T02:01:53.189Z,96.62
2022-11-17T02:02:53.156Z,96.47
2022-11-17T02:03:53.156Z,96.72
2022-11-17T02:04:53.117Z,96.62
2022-11-17T02:05:53.120Z,96.52
2022-11-17T02:06:53.153Z,96.42
2022-11-17T02:07:53.172Z,96.31
2022-11-17T02:08:53.092Z,96.21
2022-11-17T02:09:53.144Z,96.42
2022-11-17T02:10:53.090Z,96.42
2022-11-17T02:11:53.063Z,96.31
2022-11-17T02:12:53.131Z,96.42
2022-11-17T02:13:53.025Z,96.52
2022-11-17T02:14:53.028Z,96.72
2022-11-17T02:15:53.046Z,96.42
2022-11-17T02:16:53.010Z,96.42
2022-11-17T02:17:52.992Z,96.58
2022-11-17T02:18:52.978Z,96.37
2022-11-17T02:19:52.966Z,96.27
2022-11-17T02:20:52.969Z,96.21
2022-11-17T02:21:52.974Z,96.62
2022-11-17T02:22:52.953Z,96.93
2022-11-17T02:23:52.956Z,97.14
2022-11-17T02:24:52.939Z,97.14
2022-11-17T02:25:52.926Z,96.83
2022-11-17T02:26:52.900Z,96.93
2022-11-17T02:27:52.908Z,96.83
2022-11-17T02:28:52.907Z,97.19
2022-11-17T02:29:52.876Z,96.68
2022-11-17T02:30:52.884Z,96.17
2022-11-17T02:31:52.872Z,96.47
2022-11-17T02:32:52.869Z,96.58
2022-11-17T02:33:52.857Z,96.06
2022-11-17T02:34:52.833Z,96.68
2022-11-17T02:35:52.826Z,96.33
2022-11-17T02:36:52.823Z,96.33
2022-11-17T02:37:52.805Z,95.81
2022-11-17T02:38:52.778Z,95.75
2022-11-17T02:39:52.780Z,95.50
2022-11-17T02:40:52.759Z,95.50
2022-11-17T02:41:53.811Z,95.96
2022-11-17T02:42:52.759Z,95.75
2022-11-17T02:43:52.760Z,96.64
2022-11-17T02:44:52.800Z,95.96
2022-11-17T02:45:52.711Z,96.68
2022-11-17T02:46:52.730Z,95.61
2022-11-17T02:47:52.703Z,96.06
2022-11-17T02:48:52.689Z,96.68
2022-11-17T02:49:52.667Z,95.50
2022-11-17T02:50:52.681Z,95.81
2022-11-17T02:51:52.677Z,95.09
2022-11-17T02:52:52.643Z,95.25
2022-11-17T02:53:52.664Z,94.12
2022-11-17T02:54:52.651Z,95.50
2022-11-17T02:55:52.632Z,94.99
2022-11-17T02:57:24.510Z,95.25
2022-11-17T02:57:52.599Z,94.95
2022-11-17T02:58:52.598Z,95.15
2022-11-17T02:59:52.610Z,94.23
2022-11-17T03:00:52.662Z,94.23
2022-11-17T03:01:52.665Z,94.84
2022-11-17T03:02:52.564Z,94.54
2022-11-17T03:03:52.586Z,94.54
2022-11-17T03:04:52.565Z,94.54
2022-11-17T03:05:52.525Z,94.54
2022-11-17T03:06:52.586Z,94.02
2022-11-17T03:07:52.497Z,93.82
2022-11-17T03:08:52.508Z,94.02
2022-11-17T03:09:52.483Z,93.46
2022-11-17T03:10:52.503Z,93.57
2022-11-17T03:11:52.467Z,93.57
2022-11-17T03:12:52.450Z,93.36
2022-11-17T03:13:52.473Z,92.85
2022-11-17T03:14:52.475Z,93.26
2022-11-17T03:15:52.449Z,93.30
2022-11-17T03:16:52.496Z,93.30
2022-11-17T03:17:52.411Z,93.36
2022-11-17T03:18:52.408Z,93.46
2022-11-17T03:19:52.385Z,93.36
2022-11-17T03:20:52.376Z,93.51
2022-11-17T03:21:52.369Z,93.61
2022-11-17T03:22:52.352Z,93.36
2022-11-17T03:23:52.358Z,93.46
2022-11-17T03:24:52.341Z,93.46
2022-11-17T03:25:52.324Z,93.16
2022-11-17T03:26:52.316Z,93.32
2022-11-17T03:27:52.336Z,93.05
2022-11-17T03:28:52.315Z,93.05
2022-11-17T03:29:52.286Z,93.57
2022-11-17T03:30:52.294Z,93.16
2022-11-17T03:31:52.266Z,93.05
2022-11-17T03:32:52.258Z,93.26
2022-11-17T03:33:52.271Z,93.36
2022-11-17T03:34:52.234Z,93.71
2022-11-17T03:35:52.228Z,94.02
2022-11-17T03:36:52.223Z,93.71
2022-11-17T03:37:52.196Z,93.67
2022-11-17T03:38:52.253Z,93.57
2022-11-17T03:39:52.173Z,93.87
2022-11-17T03:40:52.176Z,93.57
2022-11-17T03:41:52.155Z,93.46
2022-11-17T03:42:52.138Z,93.57
2022-11-17T03:43:53.194Z,93.46
2022-11-17T03:44:52.123Z,93.26
2022-11-17T03:45:52.115Z,93.05
2022-11-17T03:46:52.105Z,93.77
2022-11-17T03:47:52.095Z,93.36
2022-11-17T03:48:52.160Z,93.46
2022-11-17T03:49:52.100Z,93.26
2022-11-17T03:50:52.089Z,93.26
2022-11-17T03:51:52.063Z,93.46
2022-11-17T03:52:52.043Z,93.57
2022-11-17T03:53:52.095Z,93.57
2022-11-17T03:54:52.037Z,93.46
2022-11-17T03:55:52.034Z,93.01
2022-11-17T03:56:52.072Z,92.80
2022-11-17T03:57:51.998Z,92.40
2022-11-17T03:58:51.976Z,92.25
2022-11-17T03:59:51.978Z,92.29
2022-11-17T04:00:51.984Z,91.78
2022-11-17T04:01:52.020Z,91.67
2022-11-17T04:02:51.955Z,91.78
2022-11-17T04:03:51.937Z,91.84
2022-11-17T04:04:51.921Z,91.88
2022-11-17T04:05:51.943Z,92.04
2022-11-17T04:06:51.945Z,91.67
2022-11-17T04:07:51.906Z,91.42
2022-11-17T04:08:51.883Z,91.42
2022-11-17T04:09:51.878Z,91.33
2022-11-17T04:10:51.888Z,91.42
2022-11-17T04:11:51.862Z,91.53
2022-11-17T04:12:51.855Z,91.38
2022-11-17T04:13:51.840Z,91.22
2022-11-17T04:14:51.829Z,90.97
2022-11-17T04:15:51.833Z,91.02
2022-11-17T04:16:51.811Z,90.71
2022-11-17T04:17:51.801Z,90.87
2022-11-17T04:18:55.921Z,90.91
2022-11-17T04:19:52.782Z,90.77
2022-11-17T04:20:51.797Z,91.12
2022-11-17T04:21:51.760Z,91.02
2022-11-17T04:22:51.743Z,91.02
2022-11-17T04:23:51.729Z,91.06
2022-11-17T04:24:51.772Z,91.06
2022-11-17T04:25:51.726Z,90.71
2022-11-17T04:26:51.705Z,91.02
2022-11-17T04:27:51.694Z,91.53
2022-11-17T04:28:51.681Z,91.63
2022-11-17T04:29:51.763Z,91.18
2022-11-17T04:30:51.660Z,90.81
2022-11-17T04:31:51.686Z,90.77
2022-11-17T04:32:51.640Z,90.97
2022-11-17T04:33:51.643Z,91.08
2022-11-17T04:34:51.615Z,90.67
2022-11-17T04:35:51.617Z,90.36
2022-11-17T04:36:51.633Z,89.84
2022-11-17T04:37:51.599Z,89.27
2022-11-17T04:38:51.589Z,89.69
2022-11-17T04:39:51.570Z,90.61
2022-11-17T04:40:51.561Z,90.81
2022-11-17T04:41:51.572Z,90.87
2022-11-17T04:42:51.540Z,90.91
2022-11-17T04:43:51.540Z,90.81
2022-11-17T04:44:51.523Z,90.81
2022-11-17T04:45:51.532Z,91.02
2022-11-17T04:46:52.526Z,90.77
2022-11-17T04:47:51.487Z,91.12
2022-11-17T04:48:51.482Z,90.71
2022-11-17T04:49:51.502Z,91.37
2022-11-17T04:50:51.582Z,91.42
2022-11-17T04:51:51.486Z,91.33
2022-11-17T04:52:51.516Z,91.22
2022-11-17T04:53:51.429Z,90.81
2022-11-17T04:54:51.416Z,90.77
2022-11-17T04:55:51.418Z,90.77
2022-11-17T04:56:51.427Z,90.71
2022-11-17T04:57:51.445Z,90.56
2022-11-17T04:58:51.389Z,90.67
2022-11-17T04:59:51.371Z,90.97
2022-11-17T05:00:51.368Z,90.61
2022-11-17T05:01:51.437Z,90.61
2022-11-17T05:02:51.354Z,90.81
2022-11-17T05:03:51.320Z,90.46
2022-11-17T05:04:51.350Z,90.81
2022-11-17T05:05:51.310Z,91.18
2022-11-17T05:06:51.328Z,91.18
2022-11-17T05:07:51.297Z,90.91
2022-11-17T05:08:51.289Z,91.53
2022-11-17T05:09:52.298Z,91.63
2022-11-17T05:10:51.293Z,91.88
2022-11-17T05:11:51.261Z,92.19
2022-11-17T05:12:51.253Z,92.29
2022-11-17T05:13:51.252Z,92.29
2022-11-17T05:14:51.235Z,92.91
2022-11-17T05:15:51.214Z,93.12
2022-11-17T05:16:51.219Z,93.01
2022-11-17T05:17:51.201Z,92.85
2022-11-17T05:18:51.186Z,93.36
2022-11-17T05:19:51.185Z,93.63
2022-11-17T05:20:51.173Z,93.12
2022-11-17T05:21:51.177Z,93.26
2022-11-17T05:22:51.164Z,93.77
2022-11-17T05:23:51.140Z,93.46
2022-11-17T05:24:51.210Z,93.16
2022-11-17T05:25:51.115Z,93.26
2022-11-17T05:26:51.111Z,93.46
2022-11-17T05:27:51.086Z,93.46
2022-11-17T05:28:51.084Z,93.87
2022-11-17T05:29:51.093Z,94.49
2022-11-17T05:30:51.061Z,94.55
2022-11-17T05:31:51.066Z,93.77
2022-11-17T05:32:51.044Z,93.46
2022-11-17T05:33:51.048Z,93.26
2022-11-17T05:34:51.050Z,93.01
2022-11-17T05:35:51.025Z,93.83
2022-11-17T05:36:51.020Z,93.42
2022-11-17T05:37:51.021Z,93.42
2022-11-17T05:38:50.988Z,93.46
2022-11-17T05:39:50.980Z,93.42
2022-11-17T05:40:51.030Z,93.36
2022-11-17T05:41:50.950Z,93.12
2022-11-17T05:42:56.865Z,93.01
2022-11-17T05:43:51.930Z,93.32
2022-11-17T05:44:50.908Z,93.32
2022-11-17T05:45:50.912Z,92.74
2022-11-17T05:46:50.899Z,92.80
2022-11-17T05:47:50.889Z,92.91
2022-11-17T05:48:50.901Z,92.85
2022-11-17T05:49:50.865Z,92.60
2022-11-17T05:50:50.864Z,92.60
2022-11-17T05:51:52.882Z,92.35
2022-11-17T05:52:50.869Z,92.14
2022-11-17T05:53:50.839Z,92.46
2022-11-17T05:54:50.825Z,92.35
2022-11-17T05:55:50.810Z,92.14
2022-11-17T05:56:50.880Z,92.35
2022-11-17T05:57:50.793Z,92.14
2022-11-17T05:58:50.793Z,92.35
2022-11-17T05:59:50.764Z,91.80
2022-11-17T06:00:50.809Z,91.84
2022-11-17T06:01:57.558Z,91.94
2022-11-17T06:02:50.747Z,91.94
2022-11-17T06:03:50.739Z,91.94
2022-11-17T06:04:50.724Z,92.46
2022-11-17T06:05:50.699Z,92.72
2022-11-17T06:06:50.768Z,92.66
2022-11-17T06:07:50.708Z,92.31
2022-11-17T06:08:50.672Z,92.41
2022-11-17T06:09:50.682Z,92.31
2022-11-17T06:10:50.717Z,92.25
2022-11-17T06:11:50.660Z,92.46
2022-11-17T06:12:50.708Z,92.25
2022-11-17T06:13:50.657Z,91.94
2022-11-17T06:14:50.611Z,92.14
2022-11-17T06:15:50.612Z,92.35
2022-11-17T06:16:50.584Z,92.66
2022-11-17T06:17:51.616Z,92.91
2022-11-17T06:18:50.577Z,93.42
2022-11-17T06:19:50.557Z,94.59
2022-11-17T06:20:50.578Z,94.24
2022-11-17T06:22:11.097Z,94.55
2022-11-17T06:22:52.536Z,94.90
2022-11-17T06:23:50.511Z,94.80
2022-11-17T06:24:50.513Z,93.77
2022-11-17T06:25:50.522Z,94.80
2022-11-17T06:26:50.481Z,95.31
2022-11-17T06:27:50.510Z,94.90
2022-11-17T06:28:50.478Z,95.52
2022-11-17T06:29:50.465Z,94.70
2022-11-17T06:30:50.452Z,94.80
2022-11-17T06:31:50.437Z,95.21
2022-11-17T06:32:50.487Z,95.10
2022-11-17T06:33:50.416Z,95.21
2022-11-17T06:34:55.268Z,95.15
2022-11-17T06:35:52.400Z,95.56
2022-11-17T06:36:50.393Z,94.84
2022-11-17T06:37:50.381Z,94.84
2022-11-17T06:38:50.391Z,95.31
2022-11-17T06:39:50.373Z,94.74
2022-11-17T06:40:50.375Z,95.21
2022-11-17T06:41:50.340Z,95.05
2022-11-17T06:42:50.330Z,95.25
2022-11-17T06:43:50.319Z,95.87
2022-11-17T06:44:50.409Z,95.87
2022-11-17T06:45:50.307Z,95.56
2022-11-17T06:46:50.292Z,96.08
2022-11-17T06:47:50.279Z,95.87
2022-11-17T06:48:50.274Z,95.87
2022-11-17T06:49:50.263Z,95.77
2022-11-17T06:50:50.275Z,95.05
2022-11-17T06:51:50.239Z,94.90
2022-11-17T06:52:50.276Z,95.52
2022-11-17T06:53:50.267Z,95.01
2022-11-17T06:54:50.249Z,95.52
2022-11-17T06:55:50.258Z,95.31
2022-11-17T06:56:50.218Z,95.10
2022-11-17T06:57:53.356Z,94.80
2022-11-17T06:58:51.217Z,95.42
2022-11-17T06:59:50.200Z,94.59
2022-11-17T07:00:50.261Z,94.55
2022-11-17T07:01:50.177Z,94.96
2022-11-17T07:02:50.157Z,94.24
2022-11-17T07:03:50.156Z,94.34
2022-11-17T07:04:50.145Z,93.73
2022-11-17T07:05:50.153Z,94.04
2022-11-17T07:06:50.307Z,94.24
2022-11-17T07:07:50.137Z,94.55
2022-11-17T07:08:50.128Z,93.63
2022-11-17T07:09:50.115Z,94.34
2022-11-17T07:10:50.084Z,94.65
2022-11-17T07:11:51.094Z,94.55
2022-11-17T07:12:50.071Z,94.24
2022-11-17T07:13:50.106Z,93.83
2022-11-17T07:14:50.049Z,94.24
2022-11-17T07:15:50.056Z,94.04
2022-11-17T07:16:51.101Z,94.18
2022-11-17T07:17:50.019Z,94.45
2022-11-17T07:18:50.031Z,94.40
2022-11-17T07:19:49.995Z,94.81
2022-11-17T07:20:49.993Z,94.04
2022-11-17T07:21:49.975Z,93.68
2022-11-17T07:22:50.977Z,93.99
2022-11-17T07:23:49.977Z,93.48
2022-11-17T07:24:49.951Z,93.48
2022-11-17T07:25:49.930Z,93.17
2022-11-17T07:26:49.944Z,93.59
2022-11-17T07:27:49.911Z,92.93
2022-11-17T07:28:49.918Z,92.61
2022-11-17T07:29:49.894Z,92.51
2022-11-17T07:30:49.891Z,92.51
2022-11-17T07:31:49.927Z,92.47
2022-11-17T07:32:54.553Z,92.36
2022-11-17T07:33:51.849Z,92.36
2022-11-17T07:34:49.853Z,92.27
2022-11-17T07:35:49.848Z,92.27
2022-11-17T07:36:49.837Z,92.36
2022-11-17T07:37:49.811Z,92.16
2022-11-17T07:38:49.811Z,91.96
2022-11-17T07:39:49.825Z,91.75
2022-11-17T07:40:49.779Z,91.86
2022-11-17T07:41:49.787Z,91.75
2022-11-17T07:42:49.783Z,91.75
2022-11-17T07:43:49.769Z,91.86
2022-11-17T07:44:49.767Z,91.96
2022-11-17T07:45:49.748Z,91.96
2022-11-17T07:46:49.740Z,92.16
2022-11-17T07:47:49.719Z,91.96
2022-11-17T07:48:49.718Z,92.27
2022-11-17T07:49:49.700Z,92.16
2022-11-17T07:50:49.706Z,92.51
2022-11-17T07:51:49.678Z,92.76
2022-11-17T07:52:49.663Z,93.27
2022-11-17T07:53:49.681Z,93.48
2022-11-17T07:54:49.647Z,93.79
2022-11-17T07:55:49.644Z,93.54
2022-11-17T07:56:49.650Z,93.95
2022-11-17T07:57:49.630Z,93.54
2022-11-17T07:58:49.650Z,93.74
2022-11-17T07:59:49.614Z,92.98
2022-11-17T08:00:49.782Z,92.00
2022-11-17T08:01:49.570Z,92.10
2022-11-17T08:02:49.568Z,92.41
2022-11-17T08:03:49.625Z,92.00
2022-11-17T08:04:50.618Z,92.16
2022-11-17T08:05:49.539Z,91.96
2022-11-17T08:06:49.702Z,92.06
2022-11-17T08:07:49.521Z,91.65
2022-11-17T08:08:49.534Z,91.55
2022-11-17T08:09:49.504Z,91.24
2022-11-17T08:10:49.473Z,91.24
2022-11-17T08:11:49.485Z,91.24
2022-11-17T08:12:49.489Z,91.35
2022-11-17T08:13:49.457Z,91.14
2022-11-17T08:14:49.450Z,90.83
2022-11-17T08:15:49.456Z,90.79
2022-11-17T08:16:49.425Z,90.99
2022-11-17T08:17:49.414Z,90.79
2022-11-17T08:18:52.362Z,90.42
2022-11-17T08:19:50.390Z,90.93
2022-11-17T08:20:49.401Z,91.24
2022-11-17T08:21:49.411Z,91.35
2022-11-17T08:22:49.363Z,91.35
2022-11-17T08:23:49.351Z,91.35
2022-11-17T08:24:49.336Z,91.30
2022-11-17T08:25:49.336Z,91.35
2022-11-17T08:26:49.353Z,91.35
2022-11-17T08:27:49.322Z,91.24
2022-11-17T08:28:53.599Z,91.35
2022-11-17T08:29:51.289Z,91.65
2022-11-17T08:30:49.281Z,91.55
2022-11-17T08:31:49.288Z,91.55
2022-11-17T08:32:49.295Z,91.86
2022-11-17T08:33:49.258Z,92.10
2022-11-17T08:34:49.256Z,92.10
2022-11-17T08:35:49.244Z,92.31
2022-11-17T08:36:49.297Z,92.72
2022-11-17T08:37:49.239Z,92.68
2022-11-17T08:38:49.215Z,92.61
2022-11-17T08:39:49.216Z,92.72
2022-11-17T08:40:49.190Z,92.82
2022-11-17T08:41:49.189Z,92.68
2022-11-17T08:42:49.208Z,92.82
2022-11-17T08:43:49.178Z,92.72
2022-11-17T08:44:49.180Z,92.72
2022-11-17T08:45:49.142Z,93.27
2022-11-17T08:46:49.135Z,93.48
2022-11-17T08:47:49.129Z,93.48
2022-11-17T08:48:55.466Z,93.79
2022-11-17T08:49:51.104Z,94.15
2022-11-17T08:50:49.116Z,94.40
2022-11-17T08:51:49.086Z,94.30
2022-11-17T08:52:49.149Z,93.99
2022-11-17T08:53:49.112Z,94.10
2022-11-17T08:54:49.046Z,94.24
2022-11-17T08:55:50.114Z,95.06
2022-11-17T08:56:49.104Z,95.06
2022-11-17T08:58:20.957Z,94.71
2022-11-17T08:58:49.054Z,94.71
2022-11-17T08:59:49.013Z,94.81
2022-11-17T09:00:49.031Z,94.10
2022-11-17T09:01:48.985Z,94.30
2022-11-17T09:02:48.966Z,94.40
2022-11-17T09:03:48.950Z,93.54
2022-11-17T09:04:48.940Z,93.95
2022-11-17T09:05:48.956Z,93.95
2022-11-17T09:06:48.922Z,93.85
2022-11-17T09:07:49.025Z,93.64
2022-11-17T09:08:49.777Z,93.85
2022-11-17T09:09:48.881Z,93.60
2022-11-17T09:10:48.865Z,92.88
2022-11-17T09:11:48.890Z,92.47
2022-11-17T09:12:48.868Z,92.63
2022-11-17T09:13:48.843Z,92.22
2022-11-17T09:14:48.825Z,92.32
2022-11-17T09:15:48.816Z,92.32
2022-11-17T09:16:48.825Z,92.16
2022-11-17T09:17:48.832Z,91.96
2022-11-17T09:18:48.797Z,92.22
2022-11-17T09:19:48.816Z,92.57
2022-11-17T09:20:48.771Z,92.43
2022-11-17T09:21:48.800Z,92.53
2022-11-17T09:22:48.751Z,92.57
2022-11-17T09:23:48.756Z,92.43
2022-11-17T09:24:48.831Z,92.98
2022-11-17T09:25:48.716Z,93.08
2022-11-17T09:26:48.701Z,93.29
2022-11-17T09:27:48.698Z,92.88
2022-11-17T09:28:48.713Z,93.29
2022-11-17T09:29:48.683Z,93.44
2022-11-17T09:30:48.696Z,93.39
2022-11-17T09:31:48.786Z,92.78
2022-11-17T09:32:48.650Z,93.08
2022-11-17T09:33:48.654Z,93.49
2022-11-17T09:34:48.693Z,93.49
2022-11-17T09:35:48.633Z,93.29
2022-11-17T09:36:48.604Z,92.88
2022-11-17T09:37:48.610Z,92.78
2022-11-17T09:38:48.614Z,92.78
2022-11-17T09:39:48.578Z,92.74
2022-11-17T09:40:48.562Z,92.22
2022-11-17T09:41:48.579Z,92.63
2022-11-17T09:42:48.545Z,92.32
2022-11-17T09:43:48.598Z,92.32
2022-11-17T09:44:48.534Z,92.47
2022-11-17T09:45:48.525Z,93.60
2022-11-17T09:46:48.508Z,93.60
2022-11-17T09:47:48.506Z,94.26
2022-11-17T09:48:48.512Z,94.83
2022-11-17T09:49:52.188Z,94.62
2022-11-17T09:50:50.473Z,94.68
2022-11-17T09:51:48.462Z,94.62
2022-11-17T09:52:48.452Z,94.56
2022-11-17T09:53:48.442Z,94.77
2022-11-17T09:54:48.522Z,94.42
2022-11-17T09:55:48.430Z,94.62
2022-11-17T09:56:48.412Z,95.03
2022-11-17T09:57:48.434Z,94.36
2022-11-17T09:58:48.410Z,95.14
2022-11-17T09:59:48.393Z,95.44
2022-11-17T10:00:48.392Z,94.73
2022-11-17T10:01:48.457Z,95.03
2022-11-17T10:02:48.374Z,94.27
2022-11-17T10:03:48.600Z,94.21
2022-11-17T10:04:48.345Z,94.78
2022-11-17T10:05:48.331Z,94.32
2022-11-17T10:06:48.331Z,94.32
2022-11-17T10:07:48.311Z,94.93
2022-11-17T10:08:48.306Z,94.62
2022-11-17T10:09:48.291Z,95.29
2022-11-17T10:10:48.293Z,94.83
2022-11-17T10:11:48.294Z,94.17
2022-11-17T10:12:48.346Z,94.68
2022-11-17T10:13:48.229Z,94.83
2022-11-17T10:14:48.231Z,94.48
2022-11-17T10:15:48.220Z,93.96
2022-11-17T10:16:48.215Z,94.58
2022-11-17T10:17:48.220Z,94.89
2022-11-17T10:18:48.197Z,95.15
2022-11-17T10:19:48.192Z,93.51
2022-11-17T10:20:48.176Z,94.02
2022-11-17T10:21:48.167Z,93.92
2022-11-17T10:22:48.182Z,93.77
2022-11-17T10:23:48.437Z,93.71
2022-11-17T10:24:48.157Z,93.16
2022-11-17T10:25:48.123Z,92.55
2022-11-17T10:26:48.113Z,92.59
2022-11-17T10:27:48.092Z,92.28
2022-11-17T10:28:48.194Z,92.08
2022-11-17T10:29:48.085Z,92.69
2022-11-17T10:30:48.095Z,92.79
2022-11-17T10:31:48.061Z,93.06
2022-11-17T10:32:48.430Z,92.59
2022-11-17T10:33:49.099Z,92.44
2022-11-17T10:34:48.045Z,92.34
2022-11-17T10:35:48.030Z,92.44
2022-11-17T10:36:48.009Z,92.85
2022-11-17T10:37:48.015Z,92.96
2022-11-17T10:38:48.013Z,92.69
2022-11-17T10:39:47.984Z,93.10
2022-11-17T10:40:48.004Z,93.20
2022-11-17T10:41:47.971Z,93.82
2022-11-17T10:42:47.954Z,94.12
2022-11-17T10:43:47.963Z,93.92
2022-11-17T10:44:47.925Z,93.41
2022-11-17T10:45:47.949Z,94.02
2022-11-17T10:46:47.923Z,93.82
2022-11-17T10:47:47.903Z,93.82
2022-11-17T10:48:47.904Z,94.54
2022-11-17T10:49:47.903Z,93.92
2022-11-17T10:50:47.891Z,93.82
2022-11-17T10:51:47.903Z,93.82
2022-11-17T10:52:47.851Z,94.33
2022-11-17T10:53:48.143Z,94.33
2022-11-17T10:54:47.837Z,94.39
2022-11-17T10:55:47.834Z,94.43
2022-11-17T10:56:47.832Z,94.64
2022-11-17T10:57:47.807Z,93.82
2022-11-17T10:58:47.833Z,94.84
2022-11-17T10:59:50.817Z,94.84
2022-11-17T11:00:49.832Z,94.84
2022-11-17T11:01:47.793Z,94.64
2022-11-17T11:02:47.767Z,94.95
2022-11-17T11:03:47.771Z,95.36
2022-11-17T11:04:47.803Z,94.95
2022-11-17T11:05:47.728Z,94.90
2022-11-17T11:06:47.705Z,94.90
2022-11-17T11:07:47.700Z,94.74
2022-11-17T11:08:47.675Z,93.98
2022-11-17T11:09:47.689Z,94.59
2022-11-17T11:10:47.692Z,94.08
2022-11-17T11:11:47.670Z,95.00
2022-11-17T11:12:47.653Z,94.39
2022-11-17T11:13:47.635Z,94.49
2022-11-17T11:14:47.632Z,94.24
2022-11-17T11:15:47.640Z,93.77
2022-11-17T11:16:48.368Z,94.55
2022-11-17T11:17:48.596Z,93.98
2022-11-17T11:18:47.595Z,95.17
2022-11-17T11:19:47.595Z,94.59
2022-11-17T11:20:47.571Z,94.24
2022-11-17T11:21:47.578Z,94.14
2022-11-17T11:22:47.577Z,93.84
2022-11-17T11:23:47.535Z,94.04
2022-11-17T11:24:47.535Z,94.04
2022-11-17T11:25:47.521Z,94.75
2022-11-17T11:26:47.539Z,93.63
2022-11-17T11:27:47.501Z,94.24
2022-11-17T11:28:52.686Z,93.18
2022-11-17T11:29:47.484Z,93.22
2022-11-17T11:30:47.462Z,93.48
2022-11-17T11:31:47.481Z,93.59
2022-11-17T11:32:47.518Z,93.54
2022-11-17T11:33:47.438Z,92.62
2022-11-17T11:34:47.457Z,92.62
2022-11-17T11:35:47.412Z,92.72
2022-11-17T11:36:47.405Z,91.91
2022-11-17T11:37:47.407Z,91.70
2022-11-17T11:38:47.407Z,92.21
2022-11-17T11:39:47.379Z,92.42
2022-11-17T11:40:47.377Z,91.66
2022-11-17T11:41:47.362Z,91.96
2022-11-17T11:42:47.350Z,91.76
2022-11-17T11:43:47.377Z,91.35
2022-11-17T11:44:47.335Z,91.35
2022-11-17T11:45:47.329Z,91.46
2022-11-17T11:46:47.313Z,91.66
2022-11-17T11:47:47.292Z,91.11
2022-11-17T11:48:47.304Z,91.15
2022-11-17T11:49:47.275Z,91.56
2022-11-17T11:50:47.271Z,91.56
2022-11-17T11:51:47.252Z,91.56
2022-11-17T11:52:47.240Z,91.25
2022-11-17T11:53:47.514Z,91.72
2022-11-17T11:54:50.799Z,91.61
2022-11-17T11:55:48.216Z,91.52
2022-11-17T11:56:47.229Z,91.20
2022-11-17T11:57:47.222Z,90.84
2022-11-17T11:58:47.191Z,91.15
2022-11-17T11:59:47.182Z,91.31
2022-11-17T12:00:47.166Z,91.20
2022-11-17T12:01:47.156Z,91.11
2022-11-17T12:02:47.205Z,90.84
2022-11-17T12:03:47.131Z,90.49
2022-11-17T12:04:47.141Z,90.23
2022-11-17T12:05:47.106Z,90.80
2022-11-17T12:06:47.118Z,90.29
2022-11-17T12:07:47.137Z,90.19
2022-11-17T12:08:47.105Z,90.39
2022-11-17T12:09:47.075Z,90.08
2022-11-17T12:10:47.059Z,90.70
2022-11-17T12:11:47.070Z,90.08
2022-11-17T12:12:47.058Z,90.49
2022-11-17T12:13:52.727Z,90.08
2022-11-17T12:14:48.021Z,90.75
2022-11-17T12:15:47.021Z,90.29
2022-11-17T12:16:47.011Z,90.49
2022-11-17T12:17:47.004Z,90.49
2022-11-17T12:18:46.996Z,89.98
2022-11-17T12:19:46.995Z,90.25
2022-11-17T12:20:46.971Z,90.19
2022-11-17T12:21:46.964Z,90.39
2022-11-17T12:22:46.966Z,90.94
2022-11-17T12:23:46.946Z,90.39
2022-11-17T12:24:46.956Z,90.12
2022-11-17T12:25:52.239Z,90.64
2022-11-17T12:26:47.923Z,91.46
2022-11-17T12:27:46.995Z,91.25
2022-11-17T12:28:46.905Z,91.15
2022-11-17T12:29:46.878Z,91.56
2022-11-17T12:30:46.863Z,91.66
2022-11-17T12:31:46.900Z,91.76
2022-11-17T12:32:46.838Z,91.70
2022-11-17T12:33:46.829Z,91.76
2022-11-17T12:34:46.919Z,92.17
2022-11-17T12:35:46.817Z,91.96
2022-11-17T12:36:46.839Z,91.66
2022-11-17T12:37:46.814Z,91.76
2022-11-17T12:38:46.802Z,91.86
2022-11-17T12:39:46.769Z,91.96
2022-11-17T12:40:46.787Z,91.66
2022-11-17T12:41:46.783Z,91.46
2022-11-17T12:42:46.736Z,91.66
2022-11-17T12:43:46.763Z,91.70
2022-11-17T12:44:46.733Z,92.01
2022-11-17T12:45:46.706Z,91.50
2022-11-17T12:46:46.714Z,92.01
2022-11-17T12:47:59.470Z,92.15
2022-11-17T12:48:48.747Z,92.21
2022-11-17T12:49:46.672Z,92.46
2022-11-17T12:50:46.658Z,92.25
2022-11-17T12:51:46.637Z,92.01
2022-11-17T12:52:46.656Z,92.21